Главная страница
METAR-TAF:

METAR-TAF

Аэропорты :

Quakertown Airport

Quakertown, Пенсильвания, США

широта: 40-26-06N, долгота: 075-22-54W, высота над уровнем моря: 160 м

Текущие метеонаблюдения

Эта сводка был подготовлена 13 минут назад, в 14:35 UTC
Штиль
Температура 27°C
Влажность 74%
Давление 1021 hPa
Видимость: 16.1 км
небольшая облачность на высоте 1800 фута

METAR: KUKT 091435Z AUTO 00000KT 10SM FEW018 27/22 A3015 RMK A01

Время: 10:48 (14:48 UTC)


TAF: отсутствует

Метеонаблюдения и прогнозы для более 4000 аэропортов (сводки METAR и TAF).

Имеющиеся станции представлены на карте желтыми и красными точками.

Чтобы увидеть название станции, наведите на нее мышь.

Затем щелкните, чтобы увидеть метеонаблюдения и метеопрогнозы.

Управление картой: чтобы увеличить масштаб, щелкните зеленые кнопки с черным крестиком; чтобы уменьшить масштаб, щелкните зеленую кнопку с тире; для просмотра соседних карт щелкайте зеленые стрелки.


METAR-TAF: